Terminal Aerodrome Forecast
Issued by NWS

Home | Current Version | Previous Version | Graphics & Text | Print | Product List | Glossary On
Versions: 1 2 3 4 5 6 7 8 9 10 11 12 13
009
FTUS42 KMHX 061138
TAFPGV
TAF
KPGV 061138Z 0612/0712 03005KT P6SM SCT070 SCT250
     FM062100 04008KT P6SM BKN070
      AMD LTD TO CLD VIS AND WIND=

USA.gov is the U.S. government's official web portal to all federal, state and local government web resources and services.